sensor_id;sensor_type;location;lat;lon;timestamp;temperature;humidity
58529;DHT22;44322;52.968;5.816;2022-08-06T00:02:29;14.90;99.90
58529;DHT22;44322;52.968;5.816;2022-08-06T00:04:57;14.90;99.90
58529;DHT22;44322;52.968;5.816;2022-08-06T00:07:23;14.90;99.90
58529;DHT22;44322;52.968;5.816;2022-08-06T00:09:49;14.90;99.90
58529;DHT22;44322;52.968;5.816;2022-08-06T00:12:15;14.80;99.90
58529;DHT22;44322;52.968;5.816;2022-08-06T00:14:41;14.80;99.90
58529;DHT22;44322;52.968;5.816;2022-08-06T00:17:07;14.80;99.90
58529;DHT22;44322;52.968;5.816;2022-08-06T00:19:33;14.80;99.90
58529;DHT22;44322;52.968;5.816;2022-08-06T00:21:59;14.70;99.90
58529;DHT22;44322;52.968;5.816;2022-08-06T00:24:25;14.70;99.90
58529;DHT22;44322;52.968;5.816;2022-08-06T00:26:51;14.70;99.90
58529;DHT22;44322;52.968;5.816;2022-08-06T00:29:17;14.60;99.90
58529;DHT22;44322;52.968;5.816;2022-08-06T00:31:43;14.60;99.90
58529;DHT22;44322;52.968;5.816;2022-08-06T00:34:08;14.60;99.90
58529;DHT22;44322;52.968;5.816;2022-08-06T00:36:34;14.50;99.90
58529;DHT22;44322;52.968;5.816;2022-08-06T00:39:03;14.50;99.90
58529;DHT22;44322;52.968;5.816;2022-08-06T00:41:32;14.50;99.90
58529;DHT22;44322;52.968;5.816;2022-08-06T00:43:59;14.40;99.90
58529;DHT22;44322;52.968;5.816;2022-08-06T00:46:25;14.40;99.90
58529;DHT22;44322;52.968;5.816;2022-08-06T00:48:51;14.40;99.90
58529;DHT22;44322;52.968;5.816;2022-08-06T00:51:17;14.30;99.90
58529;DHT22;44322;52.968;5.816;2022-08-06T00:53:43;14.30;99.90
58529;DHT22;44322;52.968;5.816;2022-08-06T00:56:09;14.30;99.90
58529;DHT22;44322;52.968;5.816;2022-08-06T00:58:36;14.20;99.90
58529;DHT22;44322;52.968;5.816;2022-08-06T01:01:02;14.20;99.90
58529;DHT22;44322;52.968;5.816;2022-08-06T01:03:28;14.20;99.90
58529;DHT22;44322;52.968;5.816;2022-08-06T01:05:54;14.10;99.90
58529;DHT22;44322;52.968;5.816;2022-08-06T01:08:20;14.10;99.90
58529;DHT22;44322;52.968;5.816;2022-08-06T01:10:46;14.10;99.90
58529;DHT22;44322;52.968;5.816;2022-08-06T01:13:12;14.10;99.90
58529;DHT22;44322;52.968;5.816;2022-08-06T01:15:40;14.00;99.90
58529;DHT22;44322;52.968;5.816;2022-08-06T01:18:16;14.00;99.90
58529;DHT22;44322;52.968;5.816;2022-08-06T01:29:29;14.00;99.90
58529;DHT22;44322;52.968;5.816;2022-08-06T01:32:11;14.00;99.90
58529;DHT22;44322;52.968;5.816;2022-08-06T01:34:51;14.00;99.90
58529;DHT22;44322;52.968;5.816;2022-08-06T01:37:29;14.00;99.90
58529;DHT22;44322;52.968;5.816;2022-08-06T01:40:00;14.00;99.90
58529;DHT22;44322;52.968;5.816;2022-08-06T01:42:29;14.00;99.90
58529;DHT22;44322;52.968;5.816;2022-08-06T01:44:58;14.00;99.90
58529;DHT22;44322;52.968;5.816;2022-08-06T01:47:28;14.00;99.90
58529;DHT22;44322;52.968;5.816;2022-08-06T01:49:57;14.00;99.90
58529;DHT22;44322;52.968;5.816;2022-08-06T01:52:25;13.90;99.90
58529;DHT22;44322;52.968;5.816;2022-08-06T01:54:52;13.90;99.90
58529;DHT22;44322;52.968;5.816;2022-08-06T01:57:21;13.90;99.90
58529;DHT22;44322;52.968;5.816;2022-08-06T01:59:50;13.90;99.90
58529;DHT22;44322;52.968;5.816;2022-08-06T02:02:24;13.80;99.90
58529;DHT22;44322;52.968;5.816;2022-08-06T02:04:55;13.80;99.90
58529;DHT22;44322;52.968;5.816;2022-08-06T02:07:25;13.80;99.90
58529;DHT22;44322;52.968;5.816;2022-08-06T02:09:52;13.80;99.90
58529;DHT22;44322;52.968;5.816;2022-08-06T02:12:24;13.70;99.90
58529;DHT22;44322;52.968;5.816;2022-08-06T02:14:54;13.70;99.90
58529;DHT22;44322;52.968;5.816;2022-08-06T02:17:25;13.70;99.90
58529;DHT22;44322;52.968;5.816;2022-08-06T02:19:53;13.70;99.90
58529;DHT22;44322;52.968;5.816;2022-08-06T02:22:21;13.60;99.90
58529;DHT22;44322;52.968;5.816;2022-08-06T02:24:48;13.60;99.90
58529;DHT22;44322;52.968;5.816;2022-08-06T02:27:17;13.60;99.90
58529;DHT22;44322;52.968;5.816;2022-08-06T02:29:45;13.50;99.90
58529;DHT22;44322;52.968;5.816;2022-08-06T02:32:13;13.50;99.90
58529;DHT22;44322;52.968;5.816;2022-08-06T02:34:40;13.50;99.90
58529;DHT22;44322;52.968;5.816;2022-08-06T02:37:17;13.50;99.90
58529;DHT22;44322;52.968;5.816;2022-08-06T02:39:44;13.50;99.90
58529;DHT22;44322;52.968;5.816;2022-08-06T02:42:14;13.50;99.90
58529;DHT22;44322;52.968;5.816;2022-08-06T02:47:36;13.50;99.90
58529;DHT22;44322;52.968;5.816;2022-08-06T02:50:04;13.60;99.90
58529;DHT22;44322;52.968;5.816;2022-08-06T02:55:21;13.70;99.90
58529;DHT22;44322;52.968;5.816;2022-08-06T02:57:54;13.70;99.90
58529;DHT22;44322;52.968;5.816;2022-08-06T03:00:22;13.80;99.90
58529;DHT22;44322;52.968;5.816;2022-08-06T03:02:54;13.90;99.90
58529;DHT22;44322;52.968;5.816;2022-08-06T03:05:22;13.90;99.90
58529;DHT22;44322;52.968;5.816;2022-08-06T03:07:50;14.00;99.90
58529;DHT22;44322;52.968;5.816;2022-08-06T03:10:18;14.10;99.90
58529;DHT22;44322;52.968;5.816;2022-08-06T03:12:45;14.10;99.90
58529;DHT22;44322;52.968;5.816;2022-08-06T03:15:13;14.20;99.90
58529;DHT22;44322;52.968;5.816;2022-08-06T03:17:43;14.30;99.90
58529;DHT22;44322;52.968;5.816;2022-08-06T03:20:10;14.40;99.90
58529;DHT22;44322;52.968;5.816;2022-08-06T03:22:37;14.40;99.90
58529;DHT22;44322;52.968;5.816;2022-08-06T03:25:06;14.50;99.90
58529;DHT22;44322;52.968;5.816;2022-08-06T03:27:34;14.50;99.90
58529;DHT22;44322;52.968;5.816;2022-08-06T03:30:01;14.50;99.90
58529;DHT22;44322;52.968;5.816;2022-08-06T03:32:27;14.60;99.90
58529;DHT22;44322;52.968;5.816;2022-08-06T03:34:53;14.60;99.90
58529;DHT22;44322;52.968;5.816;2022-08-06T03:37:21;14.60;99.90
58529;DHT22;44322;52.968;5.816;2022-08-06T03:39:48;14.60;99.90
58529;DHT22;44322;52.968;5.816;2022-08-06T03:42:15;14.70;99.90
58529;DHT22;44322;52.968;5.816;2022-08-06T03:44:41;14.60;99.90
58529;DHT22;44322;52.968;5.816;2022-08-06T03:47:21;14.70;99.90
58529;DHT22;44322;52.968;5.816;2022-08-06T03:52:33;14.70;99.90
58529;DHT22;44322;52.968;5.816;2022-08-06T03:55:04;14.60;99.90
58529;DHT22;44322;52.968;5.816;2022-08-06T03:57:39;14.60;99.90
58529;DHT22;44322;52.968;5.816;2022-08-06T04:00:08;14.50;99.90
58529;DHT22;44322;52.968;5.816;2022-08-06T04:02:43;14.40;99.90
58529;DHT22;44322;52.968;5.816;2022-08-06T04:05:12;14.40;99.90
58529;DHT22;44322;52.968;5.816;2022-08-06T04:07:39;14.30;99.90
58529;DHT22;44322;52.968;5.816;2022-08-06T04:10:07;14.30;99.90
58529;DHT22;44322;52.968;5.816;2022-08-06T04:12:33;14.20;99.90
58529;DHT22;44322;52.968;5.816;2022-08-06T04:14:59;14.20;99.90
58529;DHT22;44322;52.968;5.816;2022-08-06T04:17:27;14.20;99.90
58529;DHT22;44322;52.968;5.816;2022-08-06T04:19:54;14.10;99.90
58529;DHT22;44322;52.968;5.816;2022-08-06T04:22:20;14.10;99.90
58529;DHT22;44322;52.968;5.816;2022-08-06T04:24:47;14.10;99.90
58529;DHT22;44322;52.968;5.816;2022-08-06T04:27:13;14.00;99.90
58529;DHT22;44322;52.968;5.816;2022-08-06T04:29:40;14.00;99.90
58529;DHT22;44322;52.968;5.816;2022-08-06T04:32:07;14.00;99.90
58529;DHT22;44322;52.968;5.816;2022-08-06T04:34:36;14.00;99.90
58529;DHT22;44322;52.968;5.816;2022-08-06T04:37:04;14.00;99.90
58529;DHT22;44322;52.968;5.816;2022-08-06T04:39:31;14.10;99.90
58529;DHT22;44322;52.968;5.816;2022-08-06T04:41:57;14.10;99.90
58529;DHT22;44322;52.968;5.816;2022-08-06T04:44:23;14.10;99.90
58529;DHT22;44322;52.968;5.816;2022-08-06T04:46:50;14.10;99.90
58529;DHT22;44322;52.968;5.816;2022-08-06T04:49:17;14.10;99.90
58529;DHT22;44322;52.968;5.816;2022-08-06T04:51:47;14.10;99.90
58529;DHT22;44322;52.968;5.816;2022-08-06T04:54:14;14.10;99.90
58529;DHT22;44322;52.968;5.816;2022-08-06T04:56:42;14.10;99.90
58529;DHT22;44322;52.968;5.816;2022-08-06T04:59:08;14.00;99.90
58529;DHT22;44322;52.968;5.816;2022-08-06T05:01:35;14.10;99.90
58529;DHT22;44322;52.968;5.816;2022-08-06T05:04:02;14.00;99.90
58529;DHT22;44322;52.968;5.816;2022-08-06T05:06:43;14.10;99.90
58529;DHT22;44322;52.968;5.816;2022-08-06T05:09:13;14.00;99.90
58529;DHT22;44322;52.968;5.816;2022-08-06T05:11:43;14.00;99.90
58529;DHT22;44322;52.968;5.816;2022-08-06T05:14:16;14.00;99.90
58529;DHT22;44322;52.968;5.816;2022-08-06T05:16:46;14.10;99.90
58529;DHT22;44322;52.968;5.816;2022-08-06T05:19:21;14.10;99.90
58529;DHT22;44322;52.968;5.816;2022-08-06T05:21:49;14.10;99.90
58529;DHT22;44322;52.968;5.816;2022-08-06T05:24:16;14.10;99.90
58529;DHT22;44322;52.968;5.816;2022-08-06T05:26:43;14.20;99.90
58529;DHT22;44322;52.968;5.816;2022-08-06T05:29:09;14.20;99.90
58529;DHT22;44322;52.968;5.816;2022-08-06T05:31:37;14.30;99.90
58529;DHT22;44322;52.968;5.816;2022-08-06T05:34:09;14.30;99.90
58529;DHT22;44322;52.968;5.816;2022-08-06T05:36:35;14.40;99.90
58529;DHT22;44322;52.968;5.816;2022-08-06T05:39:01;14.50;99.90
58529;DHT22;44322;52.968;5.816;2022-08-06T05:41:27;14.50;99.90
58529;DHT22;44322;52.968;5.816;2022-08-06T05:43:56;14.60;99.90
58529;DHT22;44322;52.968;5.816;2022-08-06T05:46:24;14.60;99.90
58529;DHT22;44322;52.968;5.816;2022-08-06T05:49:02;14.70;99.90
58529;DHT22;44322;52.968;5.816;2022-08-06T05:54:03;14.80;99.90
58529;DHT22;44322;52.968;5.816;2022-08-06T05:56:42;14.80;99.90
58529;DHT22;44322;52.968;5.816;2022-08-06T05:59:16;14.80;99.90
58529;DHT22;44322;52.968;5.816;2022-08-06T06:01:43;14.90;99.90
58529;DHT22;44322;52.968;5.816;2022-08-06T06:04:11;14.90;99.90
58529;DHT22;44322;52.968;5.816;2022-08-06T06:06:38;14.90;99.90
58529;DHT22;44322;52.968;5.816;2022-08-06T06:09:05;15.00;99.90
58529;DHT22;44322;52.968;5.816;2022-08-06T06:11:31;15.00;99.90
58529;DHT22;44322;52.968;5.816;2022-08-06T06:13:57;15.10;99.90
58529;DHT22;44322;52.968;5.816;2022-08-06T06:16:33;15.10;99.90
58529;DHT22;44322;52.968;5.816;2022-08-06T06:19:46;15.20;99.90
58529;DHT22;44322;52.968;5.816;2022-08-06T06:22:21;15.20;99.90
58529;DHT22;44322;52.968;5.816;2022-08-06T06:24:54;15.20;99.90
58529;DHT22;44322;52.968;5.816;2022-08-06T06:27:59;15.30;99.90
58529;DHT22;44322;52.968;5.816;2022-08-06T06:30:41;15.30;99.90
58529;DHT22;44322;52.968;5.816;2022-08-06T06:35:51;15.40;99.90
58529;DHT22;44322;52.968;5.816;2022-08-06T06:41:12;15.40;99.90
58529;DHT22;44322;52.968;5.816;2022-08-06T06:46:36;15.50;99.90
58529;DHT22;44322;52.968;5.816;2022-08-06T06:51:48;15.50;99.90
58529;DHT22;44322;52.968;5.816;2022-08-06T06:54:28;15.60;99.90
58529;DHT22;44322;52.968;5.816;2022-08-06T06:56:57;15.70;99.90
58529;DHT22;44322;52.968;5.816;2022-08-06T06:59:31;15.70;99.90
58529;DHT22;44322;52.968;5.816;2022-08-06T07:01:57;15.70;99.90
58529;DHT22;44322;52.968;5.816;2022-08-06T07:04:27;15.80;99.90
58529;DHT22;44322;52.968;5.816;2022-08-06T07:06:58;15.80;99.90
58529;DHT22;44322;52.968;5.816;2022-08-06T07:09:28;15.90;99.90
58529;DHT22;44322;52.968;5.816;2022-08-06T07:11:56;16.00;99.90
58529;DHT22;44322;52.968;5.816;2022-08-06T07:14:24;16.00;99.90
58529;DHT22;44322;52.968;5.816;2022-08-06T07:16:52;16.00;99.90
58529;DHT22;44322;52.968;5.816;2022-08-06T07:19:23;16.10;99.90
58529;DHT22;44322;52.968;5.816;2022-08-06T07:21:57;16.10;99.90
58529;DHT22;44322;52.968;5.816;2022-08-06T07:24:33;16.10;99.90
58529;DHT22;44322;52.968;5.816;2022-08-06T07:27:00;16.20;99.90
58529;DHT22;44322;52.968;5.816;2022-08-06T07:29:27;16.20;99.90
58529;DHT22;44322;52.968;5.816;2022-08-06T07:31:55;16.20;99.90
58529;DHT22;44322;52.968;5.816;2022-08-06T07:34:22;16.30;99.90
58529;DHT22;44322;52.968;5.816;2022-08-06T07:36:52;16.30;99.90
58529;DHT22;44322;52.968;5.816;2022-08-06T07:39:27;16.40;99.90
58529;DHT22;44322;52.968;5.816;2022-08-06T07:41:55;16.40;99.90
58529;DHT22;44322;52.968;5.816;2022-08-06T07:44:23;16.50;99.90
58529;DHT22;44322;52.968;5.816;2022-08-06T07:46:53;16.70;99.90
58529;DHT22;44322;52.968;5.816;2022-08-06T07:49:24;16.90;99.90
58529;DHT22;44322;52.968;5.816;2022-08-06T07:51:52;17.10;99.90
58529;DHT22;44322;52.968;5.816;2022-08-06T07:54:22;17.20;99.90
58529;DHT22;44322;52.968;5.816;2022-08-06T07:56:49;17.30;99.90
58529;DHT22;44322;52.968;5.816;2022-08-06T07:59:15;17.40;99.90
58529;DHT22;44322;52.968;5.816;2022-08-06T08:01:41;17.50;99.90
58529;DHT22;44322;52.968;5.816;2022-08-06T08:04:08;17.60;99.90
58529;DHT22;44322;52.968;5.816;2022-08-06T08:06:54;17.60;99.90
58529;DHT22;44322;52.968;5.816;2022-08-06T08:09:22;17.50;99.90
58529;DHT22;44322;52.968;5.816;2022-08-06T08:11:50;17.50;99.90
58529;DHT22;44322;52.968;5.816;2022-08-06T08:14:19;17.50;99.90
58529;DHT22;44322;52.968;5.816;2022-08-06T08:16:46;17.40;99.90
58529;DHT22;44322;52.968;5.816;2022-08-06T08:19:27;17.30;99.90
58529;DHT22;44322;52.968;5.816;2022-08-06T08:21:57;17.30;99.90
58529;DHT22;44322;52.968;5.816;2022-08-06T08:24:25;17.20;99.90
58529;DHT22;44322;52.968;5.816;2022-08-06T08:26:51;17.20;99.90
58529;DHT22;44322;52.968;5.816;2022-08-06T08:29:17;17.30;99.90
58529;DHT22;44322;52.968;5.816;2022-08-06T08:31:43;17.40;99.90
58529;DHT22;44322;52.968;5.816;2022-08-06T08:34:08;17.50;99.90
58529;DHT22;44322;52.968;5.816;2022-08-06T08:36:34;17.50;99.90
58529;DHT22;44322;52.968;5.816;2022-08-06T08:39:00;17.60;99.90
58529;DHT22;44322;52.968;5.816;2022-08-06T08:42:06;17.70;99.90
58529;DHT22;44322;52.968;5.816;2022-08-06T08:44:35;17.80;99.90
58529;DHT22;44322;52.968;5.816;2022-08-06T08:47:03;17.90;99.90
58529;DHT22;44322;52.968;5.816;2022-08-06T08:49:39;18.10;99.90
58529;DHT22;44322;52.968;5.816;2022-08-06T08:52:14;18.20;99.90
58529;DHT22;44322;52.968;5.816;2022-08-06T08:54:44;18.40;99.90
58529;DHT22;44322;52.968;5.816;2022-08-06T08:57:11;18.40;99.90
58529;DHT22;44322;52.968;5.816;2022-08-06T08:59:39;18.50;99.90
58529;DHT22;44322;52.968;5.816;2022-08-06T09:02:07;18.50;99.90
58529;DHT22;44322;52.968;5.816;2022-08-06T09:04:35;18.60;99.90
58529;DHT22;44322;52.968;5.816;2022-08-06T09:07:02;18.70;99.90
58529;DHT22;44322;52.968;5.816;2022-08-06T09:09:28;18.70;99.90
58529;DHT22;44322;52.968;5.816;2022-08-06T09:11:56;18.80;99.90
58529;DHT22;44322;52.968;5.816;2022-08-06T09:14:23;18.80;99.90
58529;DHT22;44322;52.968;5.816;2022-08-06T09:16:49;18.90;99.90
58529;DHT22;44322;52.968;5.816;2022-08-06T09:19:15;18.90;99.90
58529;DHT22;44322;52.968;5.816;2022-08-06T09:21:41;18.90;99.90
58529;DHT22;44322;52.968;5.816;2022-08-06T09:24:09;18.90;99.90
58529;DHT22;44322;52.968;5.816;2022-08-06T09:26:35;18.90;99.90
58529;DHT22;44322;52.968;5.816;2022-08-06T09:29:18;18.90;99.90
58529;DHT22;44322;52.968;5.816;2022-08-06T09:31:45;19.00;99.90
58529;DHT22;44322;52.968;5.816;2022-08-06T09:34:10;19.10;99.90
58529;DHT22;44322;52.968;5.816;2022-08-06T09:36:45;19.20;99.90
58529;DHT22;44322;52.968;5.816;2022-08-06T09:39:12;19.40;99.10
58529;DHT22;44322;52.968;5.816;2022-08-06T09:41:49;19.50;99.40
58529;DHT22;44322;52.968;5.816;2022-08-06T09:44:16;19.60;98.70
58529;DHT22;44322;52.968;5.816;2022-08-06T09:46:46;19.70;97.50
58529;DHT22;44322;52.968;5.816;2022-08-06T09:49:14;19.80;95.90
58529;DHT22;44322;52.968;5.816;2022-08-06T09:51:41;19.90;95.20
58529;DHT22;44322;52.968;5.816;2022-08-06T09:54:12;20.00;94.50
58529;DHT22;44322;52.968;5.816;2022-08-06T09:56:44;20.00;96.00
58529;DHT22;44322;52.968;5.816;2022-08-06T09:59:12;20.10;97.60
58529;DHT22;44322;52.968;5.816;2022-08-06T10:01:45;20.20;96.70
58529;DHT22;44322;52.968;5.816;2022-08-06T10:04:14;20.20;93.10
58529;DHT22;44322;52.968;5.816;2022-08-06T10:06:53;20.10;96.70
58529;DHT22;44322;52.968;5.816;2022-08-06T10:09:20;20.20;98.70
58529;DHT22;44322;52.968;5.816;2022-08-06T10:11:46;20.30;98.40
58529;DHT22;44322;52.968;5.816;2022-08-06T10:14:32;20.40;96.30
58529;DHT22;44322;52.968;5.816;2022-08-06T10:17:14;20.50;94.70
58529;DHT22;44322;52.968;5.816;2022-08-06T10:22:30;20.80;89.90
58529;DHT22;44322;52.968;5.816;2022-08-06T10:24:58;20.80;89.00
58529;DHT22;44322;52.968;5.816;2022-08-06T10:27:31;21.00;90.90
58529;DHT22;44322;52.968;5.816;2022-08-06T10:30:05;21.20;88.80
58529;DHT22;44322;52.968;5.816;2022-08-06T10:32:41;21.40;87.40
58529;DHT22;44322;52.968;5.816;2022-08-06T10:35:09;21.50;84.70
58529;DHT22;44322;52.968;5.816;2022-08-06T10:37:38;21.50;89.70
58529;DHT22;44322;52.968;5.816;2022-08-06T10:40:09;21.40;89.30
58529;DHT22;44322;52.968;5.816;2022-08-06T10:42:38;21.30;89.80
58529;DHT22;44322;52.968;5.816;2022-08-06T10:45:05;21.10;89.90
58529;DHT22;44322;52.968;5.816;2022-08-06T10:47:32;21.00;91.20
58529;DHT22;44322;52.968;5.816;2022-08-06T10:49:58;21.00;92.20
58529;DHT22;44322;52.968;5.816;2022-08-06T10:52:27;21.20;91.10
58529;DHT22;44322;52.968;5.816;2022-08-06T10:54:54;21.70;91.50
58529;DHT22;44322;52.968;5.816;2022-08-06T10:57:22;22.40;89.80
58529;DHT22;44322;52.968;5.816;2022-08-06T10:59:48;23.00;77.90
58529;DHT22;44322;52.968;5.816;2022-08-06T11:05:01;23.00;74.90
58529;DHT22;44322;52.968;5.816;2022-08-06T11:13:07;22.40;77.00
58529;DHT22;44322;52.968;5.816;2022-08-06T11:15:36;22.50;79.50
58529;DHT22;44322;52.968;5.816;2022-08-06T11:18:05;23.00;73.60
58529;DHT22;44322;52.968;5.816;2022-08-06T11:25:41;23.70;60.90
58529;DHT22;44322;52.968;5.816;2022-08-06T11:28:15;23.40;61.70
58529;DHT22;44322;52.968;5.816;2022-08-06T11:30:49;23.10;60.20
58529;DHT22;44322;52.968;5.816;2022-08-06T11:33:21;23.00;63.90
58529;DHT22;44322;52.968;5.816;2022-08-06T11:35:50;23.20;64.30
58529;DHT22;44322;52.968;5.816;2022-08-06T11:41:10;24.10;56.50
58529;DHT22;44322;52.968;5.816;2022-08-06T11:54:33;25.50;53.80
58529;DHT22;44322;52.968;5.816;2022-08-06T11:59:29;26.10;52.50
58529;DHT22;44322;52.968;5.816;2022-08-06T12:01:56;25.80;51.30
58529;DHT22;44322;52.968;5.816;2022-08-06T12:09:43;25.60;51.40
58529;DHT22;44322;52.968;5.816;2022-08-06T12:14:52;25.90;48.20
58529;DHT22;44322;52.968;5.816;2022-08-06T12:17:19;25.60;48.50
58529;DHT22;44322;52.968;5.816;2022-08-06T12:19:47;25.70;47.80
58529;DHT22;44322;52.968;5.816;2022-08-06T12:22:14;26.10;47.20
58529;DHT22;44322;52.968;5.816;2022-08-06T12:24:44;26.60;46.10
58529;DHT22;44322;52.968;5.816;2022-08-06T12:27:14;27.00;45.60
58529;DHT22;44322;52.968;5.816;2022-08-06T12:29:41;26.80;45.50
58529;DHT22;44322;52.968;5.816;2022-08-06T12:34:48;26.40;45.80
58529;DHT22;44322;52.968;5.816;2022-08-06T12:37:15;26.60;45.20
58529;DHT22;44322;52.968;5.816;2022-08-06T12:39:41;27.00;44.60
58529;DHT22;44322;52.968;5.816;2022-08-06T12:42:27;27.30;41.60
58529;DHT22;44322;52.968;5.816;2022-08-06T12:44:53;27.60;44.00
58529;DHT22;44322;52.968;5.816;2022-08-06T12:47:22;27.80;43.10
58529;DHT22;44322;52.968;5.816;2022-08-06T12:49:48;27.80;43.00
58529;DHT22;44322;52.968;5.816;2022-08-06T12:52:16;28.10;43.00
58529;DHT22;44322;52.968;5.816;2022-08-06T12:54:43;28.60;42.40
58529;DHT22;44322;52.968;5.816;2022-08-06T12:57:27;29.10;41.80
58529;DHT22;44322;52.968;5.816;2022-08-06T12:59:56;29.60;40.40
58529;DHT22;44322;52.968;5.816;2022-08-06T13:02:24;29.90;40.60
58529;DHT22;44322;52.968;5.816;2022-08-06T13:04:53;30.10;39.30
58529;DHT22;44322;52.968;5.816;2022-08-06T13:07:21;29.80;39.40
58529;DHT22;44322;52.968;5.816;2022-08-06T13:09:47;29.40;40.00
58529;DHT22;44322;52.968;5.816;2022-08-06T13:12:18;29.50;40.70
58529;DHT22;44322;52.968;5.816;2022-08-06T13:14:55;29.90;40.70
58529;DHT22;44322;52.968;5.816;2022-08-06T13:17:23;29.80;39.30
58529;DHT22;44322;52.968;5.816;2022-08-06T13:19:55;29.50;40.40
58529;DHT22;44322;52.968;5.816;2022-08-06T13:22:23;29.30;41.50
58529;DHT22;44322;52.968;5.816;2022-08-06T13:25:10;29.00;41.80
58529;DHT22;44322;52.968;5.816;2022-08-06T13:27:39;29.10;41.40
58529;DHT22;44322;52.968;5.816;2022-08-06T13:30:10;29.10;40.60
58529;DHT22;44322;52.968;5.816;2022-08-06T13:32:39;28.70;40.40
58529;DHT22;44322;52.968;5.816;2022-08-06T13:35:08;28.30;41.70
58529;DHT22;44322;52.968;5.816;2022-08-06T13:37:49;28.30;41.90
58529;DHT22;44322;52.968;5.816;2022-08-06T13:40:17;28.50;41.10
58529;DHT22;44322;52.968;5.816;2022-08-06T13:42:52;28.30;41.40
58529;DHT22;44322;52.968;5.816;2022-08-06T13:45:27;28.50;41.30
58529;DHT22;44322;52.968;5.816;2022-08-06T13:48:08;28.90;40.90
58529;DHT22;44322;52.968;5.816;2022-08-06T13:50:37;29.40;40.00
58529;DHT22;44322;52.968;5.816;2022-08-06T13:53:05;29.20;39.70
58529;DHT22;44322;52.968;5.816;2022-08-06T13:55:31;29.00;40.00
58529;DHT22;44322;52.968;5.816;2022-08-06T13:57:58;29.20;39.90
58529;DHT22;44322;52.968;5.816;2022-08-06T14:00:25;29.60;39.60
58529;DHT22;44322;52.968;5.816;2022-08-06T14:02:52;30.00;38.70
58529;DHT22;44322;52.968;5.816;2022-08-06T14:05:18;30.70;38.60
58529;DHT22;44322;52.968;5.816;2022-08-06T14:07:44;31.20;38.00
58529;DHT22;44322;52.968;5.816;2022-08-06T14:10:15;31.60;36.90
58529;DHT22;44322;52.968;5.816;2022-08-06T14:12:45;31.50;37.10
58529;DHT22;44322;52.968;5.816;2022-08-06T14:18:21;30.50;38.60
58529;DHT22;44322;52.968;5.816;2022-08-06T14:20:48;29.80;38.90
58529;DHT22;44322;52.968;5.816;2022-08-06T14:23:19;29.20;38.60
58529;DHT22;44322;52.968;5.816;2022-08-06T14:25:45;28.70;39.00
58529;DHT22;44322;52.968;5.816;2022-08-06T14:28:11;28.20;39.70
58529;DHT22;44322;52.968;5.816;2022-08-06T14:30:39;27.60;40.90
58529;DHT22;44322;52.968;5.816;2022-08-06T14:33:09;27.20;42.00
58529;DHT22;44322;52.968;5.816;2022-08-06T14:35:38;26.80;42.60
58529;DHT22;44322;52.968;5.816;2022-08-06T14:38:07;26.50;43.40
58529;DHT22;44322;52.968;5.816;2022-08-06T14:40:34;26.20;44.10
58529;DHT22;44322;52.968;5.816;2022-08-06T14:43:19;26.10;44.30
58529;DHT22;44322;52.968;5.816;2022-08-06T14:46:03;25.80;44.50
58529;DHT22;44322;52.968;5.816;2022-08-06T14:48:30;25.60;45.20
58529;DHT22;44322;52.968;5.816;2022-08-06T14:50:56;25.40;45.40
58529;DHT22;44322;52.968;5.816;2022-08-06T14:53:22;25.20;45.90
58529;DHT22;44322;52.968;5.816;2022-08-06T14:55:48;25.00;45.50
58529;DHT22;44322;52.968;5.816;2022-08-06T14:58:14;24.80;45.50
58529;DHT22;44322;52.968;5.816;2022-08-06T15:00:40;24.70;46.10
58529;DHT22;44322;52.968;5.816;2022-08-06T15:03:06;24.70;46.50
58529;DHT22;44322;52.968;5.816;2022-08-06T15:05:32;24.60;47.70
58529;DHT22;44322;52.968;5.816;2022-08-06T15:08:01;24.60;48.30
58529;DHT22;44322;52.968;5.816;2022-08-06T15:10:26;24.60;48.50
58529;DHT22;44322;52.968;5.816;2022-08-06T15:12:52;24.50;48.30
58529;DHT22;44322;52.968;5.816;2022-08-06T15:15:18;24.40;48.20
58529;DHT22;44322;52.968;5.816;2022-08-06T15:17:44;24.40;48.80
58529;DHT22;44322;52.968;5.816;2022-08-06T15:20:10;24.30;49.00
58529;DHT22;44322;52.968;5.816;2022-08-06T15:22:36;24.30;48.30
58529;DHT22;44322;52.968;5.816;2022-08-06T15:25:02;24.30;49.00
58529;DHT22;44322;52.968;5.816;2022-08-06T15:27:28;24.30;49.60
58529;DHT22;44322;52.968;5.816;2022-08-06T15:29:53;24.30;49.20
58529;DHT22;44322;52.968;5.816;2022-08-06T15:32:19;24.30;49.10
58529;DHT22;44322;52.968;5.816;2022-08-06T15:34:45;24.20;49.40
58529;DHT22;44322;52.968;5.816;2022-08-06T15:37:11;24.10;48.90
58529;DHT22;44322;52.968;5.816;2022-08-06T15:39:37;24.10;49.30
58529;DHT22;44322;52.968;5.816;2022-08-06T15:42:03;23.90;49.60
58529;DHT22;44322;52.968;5.816;2022-08-06T15:44:29;23.80;49.80
58529;DHT22;44322;52.968;5.816;2022-08-06T15:46:54;23.80;50.10
58529;DHT22;44322;52.968;5.816;2022-08-06T15:49:20;23.80;51.10
58529;DHT22;44322;52.968;5.816;2022-08-06T15:51:46;23.80;51.30
58529;DHT22;44322;52.968;5.816;2022-08-06T15:54:13;23.70;50.20
58529;DHT22;44322;52.968;5.816;2022-08-06T15:56:39;23.70;49.90
58529;DHT22;44322;52.968;5.816;2022-08-06T15:59:05;23.60;49.80
58529;DHT22;44322;52.968;5.816;2022-08-06T16:01:31;23.50;50.80
58529;DHT22;44322;52.968;5.816;2022-08-06T16:03:58;23.50;50.90
58529;DHT22;44322;52.968;5.816;2022-08-06T16:06:23;23.50;51.20
58529;DHT22;44322;52.968;5.816;2022-08-06T16:08:49;23.40;51.60
58529;DHT22;44322;52.968;5.816;2022-08-06T16:11:17;23.40;51.80
58529;DHT22;44322;52.968;5.816;2022-08-06T16:13:44;23.30;52.00
58529;DHT22;44322;52.968;5.816;2022-08-06T16:16:10;23.20;51.80
58529;DHT22;44322;52.968;5.816;2022-08-06T16:18:35;23.20;52.80
58529;DHT22;44322;52.968;5.816;2022-08-06T16:21:02;23.10;53.40
58529;DHT22;44322;52.968;5.816;2022-08-06T16:23:29;23.10;53.20
58529;DHT22;44322;52.968;5.816;2022-08-06T16:25:55;23.00;52.50
58529;DHT22;44322;52.968;5.816;2022-08-06T16:28:23;23.00;52.50
58529;DHT22;44322;52.968;5.816;2022-08-06T16:30:49;23.00;53.00
58529;DHT22;44322;52.968;5.816;2022-08-06T16:33:15;22.90;53.60
58529;DHT22;44322;52.968;5.816;2022-08-06T16:35:41;22.90;54.10
58529;DHT22;44322;52.968;5.816;2022-08-06T16:38:08;22.90;54.60
58529;DHT22;44322;52.968;5.816;2022-08-06T16:40:34;22.90;55.10
58529;DHT22;44322;52.968;5.816;2022-08-06T16:42:59;22.80;55.30
58529;DHT22;44322;52.968;5.816;2022-08-06T16:45:25;22.80;55.00
58529;DHT22;44322;52.968;5.816;2022-08-06T16:47:53;22.70;54.40
58529;DHT22;44322;52.968;5.816;2022-08-06T16:50:21;22.70;55.50
58529;DHT22;44322;52.968;5.816;2022-08-06T16:52:47;22.70;55.00
58529;DHT22;44322;52.968;5.816;2022-08-06T16:55:13;22.60;54.40
58529;DHT22;44322;52.968;5.816;2022-08-06T16:57:39;22.60;54.00
58529;DHT22;44322;52.968;5.816;2022-08-06T17:00:07;22.50;53.50